»·PEaware :: N7851P KSNA-KBUR

N7851P :: KSNA-KBUR

FLIGHT INFORMATION

Flight Status: Arrived
Operator: Privately registered:
United States
More flights under this callsign
Pilot: Kevin M. (19404)
Aircraft: CESSNA 172 SKYHAWK
(C172)
More flights by this aircraft type
Origin: KSNA John Wayne-Orange Co
United States
Destination: KBUR Bob Hope-Burbank
United States
More flights between these airports :: More routes between these airports
Route: +SLI V23 POPPR SMO125R SMO SMO311R SILEX
File this flight plan on PilotEdge
Remarks: IFR TEC ROUTE
Altitude:
(Current/Filed)
4,000ft
Speed:
(Current/Filed)
105kts
Departed: 08-Nov-18 04:45 PM
Arrived: 08-Nov-18 05:24 PM
Distance/Time
Traveled:
40nm/0:39
Distance/Time
To Go:
Arrived

Flight Plot

Page will automatically refresh every two minutes.


Map Options




Map Legend


Flown Route
Filed Route
Departure Airport
Arrival Airport
Navaid (VOR, NDB)
Fix

Horizontal Profiles

Position Reports

Time Latitude Longitude Heading Altitude Ground
Speed
08-Nov-18 16:30 33.675761 -117.871269 39 60ft 0kts
08-Nov-18 16:31 33.675761 -117.871269 39 60ft 0kts
08-Nov-18 16:32 33.675761 -117.871269 39 60ft 0kts
08-Nov-18 16:33 33.675761 -117.871269 39 60ft 0kts
08-Nov-18 16:34 33.675761 -117.871269 39 60ft 0kts
08-Nov-18 16:35 33.675761 -117.871269 39 60ft 0kts
08-Nov-18 16:36 33.675761 -117.871269 39 60ft 0kts
08-Nov-18 16:37 33.675761 -117.871269 39 60ft 0kts
08-Nov-18 16:38 33.675761 -117.871269 39 60ft 0kts
08-Nov-18 16:39 33.675761 -117.871269 39 60ft 0kts
08-Nov-18 16:40 33.675761 -117.871269 39 60ft 0kts
08-Nov-18 16:41 33.675761 -117.871268 39 60ft 0kts
08-Nov-18 16:42 33.675761 -117.871269 39 60ft 0kts
08-Nov-18 16:43 33.675761 -117.871269 39 60ft 0kts
08-Nov-18 16:44 33.677334 -117.869286 28 60ft 27kts
08-Nov-18 16:45 33.681245 -117.866672 91 60ft 0kts
08-Nov-18 16:46 33.681245 -117.866672 91 60ft 0kts
08-Nov-18 16:47 33.680706 -117.865788 170 60ft 11kts
08-Nov-18 16:48 33.662224 -117.878583 210 636ft 99kts
08-Nov-18 16:49 33.645879 -117.904190 234 1631ft 95kts
08-Nov-18 16:50 33.630842 -117.929177 232 2625ft 90kts
08-Nov-18 16:51 33.614542 -117.953220 230 3473ft 97kts
08-Nov-18 16:52 33.599987 -117.981174 276 3994ft 119kts
08-Nov-18 16:53 33.622566 -118.008637 320 3990ft 101kts
08-Nov-18 16:54 33.640225 -118.036408 300 3993ft 111kts
08-Nov-18 16:55 33.654811 -118.069025 297 3993ft 113kts
08-Nov-18 16:56 33.669006 -118.102707 295 3993ft 113kts
08-Nov-18 16:57 33.690777 -118.129403 317 3993ft 113kts
08-Nov-18 16:58 33.714037 -118.154564 317 3993ft 112kts
08-Nov-18 16:59 33.737261 -118.179690 317 3993ft 112kts
08-Nov-18 17:00 33.756543 -118.200564 317 3993ft 112kts
08-Nov-18 17:01 33.783696 -118.229949 317 3993ft 112kts
08-Nov-18 17:02 33.807210 -118.254536 319 3993ft 112kts
08-Nov-18 17:03 33.831136 -118.278658 320 3993ft 112kts
08-Nov-18 17:04 33.855809 -118.301831 323 3993ft 112kts
08-Nov-18 17:05 33.876587 -118.320656 323 3993ft 112kts
08-Nov-18 17:06 33.905156 -118.347270 321 3993ft 112kts
08-Nov-18 17:07 33.925350 -118.366944 320 3993ft 112kts
08-Nov-18 17:08 33.949026 -118.391569 319 3985ft 113kts
08-Nov-18 17:09 33.972216 -118.417039 317 3984ft 112kts
08-Nov-18 17:10 33.995364 -118.442273 319 3984ft 112kts
08-Nov-18 17:11 34.019309 -118.466471 323 3983ft 112kts
08-Nov-18 17:12 34.045956 -118.486423 331 3984ft 113kts
08-Nov-18 17:13 34.071891 -118.507703 324 3983ft 113kts
08-Nov-18 17:14 34.097700 -118.529453 325 3984ft 113kts
08-Nov-18 17:15 34.122676 -118.550447 325 3974ft 112kts
08-Nov-18 17:16 34.148674 -118.571551 326 3974ft 112kts
08-Nov-18 17:17 34.174685 -118.592651 326 3974ft 112kts
08-Nov-18 17:18 34.200968 -118.612989 346 3970ft 113kts
08-Nov-18 17:19 34.210657 -118.586771 113 3974ft 110kts
08-Nov-18 17:20 34.199517 -118.555105 108 3435ft 114kts
08-Nov-18 17:21 34.197999 -118.519011 87 2988ft 94kts
08-Nov-18 17:22 34.199091 -118.487274 90 2708ft 94kts
08-Nov-18 17:23 34.198707 -118.455245 91 2164ft 93kts
08-Nov-18 17:24 34.198475 -118.424426 90 1662ft 90kts
08-Nov-18 17:25 34.198494 -118.394232 92 1247ft 82kts
08-Nov-18 17:26 34.197948 -118.370687 90 836ft 65kts
08-Nov-18 17:27 34.198510 -118.360384 355 717ft 4kts

Navigation Log

Ident Type
1. KSNA Airport
2. SLI Navaid
3. POPPR Fix
4. SMO Navaid
5. SILEX Fix
6. KBUR Airport